Time;durP1;ratioP1;P1;durP2;ratioP2;P2;SDS_P1;SDS_P2;PMS_P1;PMS_P2;Temp;Humidity;BMP_temperature;BMP_pressure;BME280_temperature;BME280_humidity;BME280_pressure;Samples;Min_cycle;Max_cycle;Signal;HPM_P1;HPM_P2
2023/02/25 00:02:12;;;;;;;131.63;73.45;;;10.00;99.90;;;;;;5033622;28;20492;-76
2023/02/25 00:04:40;;;;;;;132.65;72.32;;;10.00;99.90;;;;;;5033395;28;20030;-76
2023/02/25 00:07:06;;;;;;;132.77;72.35;;;10.00;99.90;;;;;;5033289;28;20181;-76
2023/02/25 00:09:32;;;;;;;125.65;71.82;;;9.90;99.90;;;;;;5033684;28;20056;-76
2023/02/25 00:11:58;;;;;;;136.70;73.80;;;9.90;99.90;;;;;;5016329;28;20052;-76
2023/02/25 00:14:24;;;;;;;128.63;71.60;;;9.90;99.90;;;;;;5024042;28;20026;-76
2023/02/25 00:16:49;;;;;;;138.98;73.82;;;9.90;99.90;;;;;;5033659;28;20079;-76
2023/02/25 00:19:15;;;;;;;142.90;75.03;;;10.00;99.90;;;;;;5015914;28;20408;-76
2023/02/25 00:21:41;;;;;;;135.93;77.35;;;9.90;99.90;;;;;;5008387;28;20030;-76
2023/02/25 00:24:07;;;;;;;137.32;78.93;;;9.90;99.90;;;;;;5033948;28;20029;-76
2023/02/25 00:26:32;;;;;;;160.77;87.85;;;9.80;99.90;;;;;;5029859;28;20079;-76
2023/02/25 00:28:58;;;;;;;158.05;88.03;;;9.80;99.90;;;;;;5033024;28;20029;-76
2023/02/25 00:31:25;;;;;;;156.73;86.57;;;9.80;99.90;;;;;;5029539;28;20124;-76
2023/02/25 00:33:51;;;;;;;155.68;90.43;;;9.80;99.90;;;;;;5029183;28;20021;-76
2023/02/25 00:36:23;;;;;;;155.68;87.43;;;9.80;99.90;;;;;;5032745;28;20021;-76
2023/02/25 00:38:50;;;;;;;147.30;85.35;;;9.80;99.90;;;;;;5023888;28;20673;-76
2023/02/25 00:41:19;;;;;;;144.23;80.50;;;9.80;99.90;;;;;;5015191;28;20029;-76
2023/02/25 00:43:53;;;;;;;130.63;74.57;;;9.80;99.90;;;;;;5022733;28;20025;-76
2023/02/25 00:46:19;;;;;;;133.95;78.80;;;9.70;99.90;;;;;;5023796;28;20503;-76
2023/02/25 00:48:45;;;;;;;146.13;84.00;;;9.70;99.90;;;;;;5032415;28;20485;-76
2023/02/25 00:51:18;;;;;;;147.38;81.43;;;9.60;99.90;;;;;;5032350;28;20040;-77
2023/02/25 00:53:46;;;;;;;141.68;80.05;;;9.60;99.90;;;;;;5023652;28;20125;-76
2023/02/25 00:56:14;;;;;;;146.10;82.07;;;9.50;99.90;;;;;;5032692;28;20380;-76
2023/02/25 00:58:41;;;;;;;143.05;80.18;;;9.40;99.90;;;;;;5028396;28;20037;-76
2023/02/25 01:01:20;;;;;;;135.40;76.47;;;9.30;99.90;;;;;;5028628;28;20500;-76
2023/02/25 01:03:48;;;;;;;136.57;75.05;;;9.30;99.90;;;;;;5032167;28;20025;-76
2023/02/25 01:06:13;;;;;;;135.00;72.28;;;9.40;99.90;;;;;;5023317;28;20022;-76
2023/02/25 01:08:39;;;;;;;130.45;71.45;;;9.30;99.90;;;;;;5032188;28;20385;-77
2023/02/25 01:11:19;;;;;;;131.13;73.90;;;9.30;99.90;;;;;;5023226;28;20432;-76
2023/02/25 01:13:46;;;;;;;132.88;74.60;;;9.20;99.90;;;;;;5030288;28;20061;-76
2023/02/25 01:16:17;;;;;;;130.20;72.60;;;9.10;99.90;;;;;;5014325;28;20033;-76
2023/02/25 01:18:43;;;;;;;140.02;76.93;;;9.10;99.90;;;;;;5024688;28;20025;-76
2023/02/25 01:21:27;;;;;;;165.45;87.80;;;9.10;99.90;;;;;;5014291;28;20030;-76
2023/02/25 01:24:21;;;;;;;156.82;87.53;;;9.00;99.90;;;;;;5028672;28;20100;-76
2023/02/25 01:26:49;;;;;;;152.82;84.63;;;8.90;99.90;;;;;;5028948;28;20048;-76
2023/02/25 01:29:18;;;;;;;147.07;81.75;;;8.80;99.90;;;;;;5047714;28;20053;-76
2023/02/25 01:31:44;;;;;;;142.40;77.65;;;8.80;99.90;;;;;;5013134;28;20136;-76
2023/02/25 01:34:13;;;;;;;137.18;74.55;;;8.70;99.90;;;;;;5008857;28;20026;-76
2023/02/25 01:36:40;;;;;;;128.23;71.85;;;8.80;99.90;;;;;;5023579;28;20026;-76
2023/02/25 01:39:06;;;;;;;127.85;70.78;;;8.80;99.90;;;;;;5030880;28;20057;-76
2023/02/25 01:41:34;;;;;;;122.32;67.00;;;8.90;99.90;;;;;;5013948;28;20045;-77
2023/02/25 01:44:10;;;;;;;123.22;67.13;;;8.90;99.90;;;;;;5031721;28;20101;-77
2023/02/25 01:46:38;;;;;;;127.63;67.13;;;8.80;99.90;;;;;;5006469;28;20024;-76
2023/02/25 01:49:30;;;;;;;120.15;64.93;;;8.70;99.90;;;;;;5031450;28;20017;-76
2023/02/25 01:52:12;;;;;;;109.70;63.72;;;8.70;99.90;;;;;;5023287;28;20049;-76
2023/02/25 01:54:38;;;;;;;;;;;8.60;99.90;;;;;;5011899;28;20021;-76
2023/02/25 01:57:10;;;;;;;103.15;56.63;;;8.60;99.90;;;;;;5022913;28;19975;-76
2023/02/25 01:59:37;;;;;;;;;;;8.60;99.90;;;;;;5031561;28;20056;-76
2023/02/25 02:02:03;;;;;;;110.88;60.17;;;8.60;99.90;;;;;;5023187;28;19944;-76
2023/02/25 02:04:30;;;;;;;112.32;58.28;;;8.60;99.90;;;;;;5013932;28;20061;-76
2023/02/25 02:06:57;;;;;;;105.35;60.22;;;8.60;99.90;;;;;;5031454;28;20037;-76
2023/02/25 02:09:27;;;;;;;102.93;54.85;;;8.60;99.90;;;;;;5031505;28;20393;-76
2023/02/25 02:11:56;;;;;;;96.38;52.60;;;8.60;99.90;;;;;;5031644;28;20433;-78
2023/02/25 02:14:28;;;;;;;94.95;54.22;;;8.60;99.90;;;;;;5031608;28;20032;-78
2023/02/25 02:17:31;;;;;;;98.68;54.90;;;8.60;99.90;;;;;;5031432;28;20029;-77
2023/02/25 02:20:19;;;;;;;101.97;57.30;;;8.50;99.90;;;;;;5025719;28;20065;-78
2023/02/25 02:22:44;;;;;;;106.38;60.78;;;8.40;99.90;;;;;;5031236;28;20018;-76
2023/02/25 02:25:10;;;;;;;112.93;60.13;;;8.30;99.90;;;;;;5031470;28;20032;-76
2023/02/25 02:28:13;;;;;;;97.28;54.45;;;8.40;99.90;;;;;;5022270;28;20072;-76
2023/02/25 02:30:38;;;;;;;;;;;8.40;99.90;;;;;;5028741;28;20033;-76
2023/02/25 02:33:16;;;;;;;87.05;47.90;;;8.30;99.90;;;;;;5027383;28;20163;-76
2023/02/25 02:36:07;;;;;;;83.63;49.03;;;8.30;99.90;;;;;;5031153;28;20030;-76
2023/02/25 02:38:52;;;;;;;70.20;39.53;;;8.20;99.90;;;;;;5029496;28;20026;-76
2023/02/25 02:41:53;;;;;;;76.05;43.97;;;8.10;99.90;;;;;;5014573;28;20469;-76
2023/02/25 02:44:46;;;;;;;86.95;48.63;;;8.10;99.90;;;;;;5016094;28;20026;-76
2023/02/25 02:47:20;;;;;;;85.90;50.20;;;8.10;99.90;;;;;;5029439;28;20018;-76
2023/02/25 02:49:59;;;;;;;85.88;47.78;;;8.20;99.90;;;;;;5015912;28;20036;-76
2023/02/25 02:52:29;;;;;;;86.57;47.13;;;8.20;99.90;;;;;;5031788;28;20537;-76
2023/02/25 02:55:11;;;;;;;83.20;48.60;;;8.30;99.90;;;;;;5016339;28;20147;-76
2023/02/25 02:57:41;;;;;;;88.87;47.53;;;8.30;99.90;;;;;;5032655;28;20029;-76
2023/02/25 03:00:16;;;;;;;93.65;49.47;;;8.30;99.90;;;;;;5031701;28;20493;-76
2023/02/25 03:02:50;;;;;;;99.80;51.72;;;8.30;99.90;;;;;;5030615;28;20021;-76
2023/02/25 03:05:19;;;;;;;99.78;50.65;;;8.40;99.90;;;;;;5030588;28;20099;-76
2023/02/25 03:07:53;;;;;;;93.38;51.03;;;8.50;99.90;;;;;;5034269;28;20116;-76
2023/02/25 03:10:21;;;;;;;95.95;51.40;;;8.60;99.90;;;;;;5024670;28;20033;-76
2023/02/25 03:12:47;;;;;;;97.97;51.55;;;8.60;99.90;;;;;;5025284;28;20378;-76
2023/02/25 03:15:13;;;;;;;100.30;51.78;;;8.60;99.90;;;;;;5034063;28;20033;-76
2023/02/25 03:17:45;;;;;;;90.90;48.40;;;8.70;99.90;;;;;;5033950;28;20604;-76
2023/02/25 03:20:22;;;;;;;97.18;50.50;;;8.70;99.90;;;;;;5030353;28;20025;-76
2023/02/25 03:22:50;;;;;;;82.28;45.70;;;8.70;99.90;;;;;;5034111;28;20041;-76
2023/02/25 03:25:23;;;;;;;84.22;45.33;;;8.70;99.90;;;;;;5021228;28;20459;-76
2023/02/25 03:27:55;;;;;;;81.18;46.35;;;8.80;99.90;;;;;;5016151;28;20029;-76
2023/02/25 03:30:20;;;;;;;86.10;46.58;;;8.70;99.90;;;;;;5033271;28;20087;-76
2023/02/25 03:32:51;;;;;;;82.70;45.60;;;8.60;99.90;;;;;;5030248;28;20428;-76
2023/02/25 03:35:19;;;;;;;84.60;44.58;;;8.60;99.90;;;;;;5033913;28;21025;-76
2023/02/25 03:37:49;;;;;;;82.80;45.85;;;8.60;99.90;;;;;;5033933;28;20101;-76
2023/02/25 03:40:16;;;;;;;83.47;44.63;;;8.60;99.90;;;;;;5030156;28;20017;-76
2023/02/25 03:42:47;;;;;;;82.32;44.40;;;8.70;99.90;;;;;;5033517;28;20096;-76
2023/02/25 03:45:14;;;;;;;78.38;42.50;;;8.70;99.90;;;;;;5020934;28;20029;-76
2023/02/25 03:47:41;;;;;;;76.05;43.25;;;8.70;99.90;;;;;;5033437;28;20040;-76
2023/02/25 03:50:29;;;;;;;77.70;43.05;;;8.60;99.90;;;;;;5033019;28;20040;-76
2023/02/25 03:52:55;;;;;;;77.85;43.10;;;8.60;99.90;;;;;;5030658;28;20034;-77
2023/02/25 03:55:21;;;;;;;75.07;40.35;;;8.60;99.90;;;;;;5015382;28;20109;-76
2023/02/25 03:57:50;;;;;;;80.80;42.35;;;8.60;99.90;;;;;;5033118;28;20030;-76
2023/02/25 04:00:21;;;;;;;77.10;43.40;;;8.60;99.90;;;;;;5015428;28;20081;-76
2023/02/25 04:02:47;;;;;;;76.82;41.45;;;8.60;99.90;;;;;;5029372;28;20064;-76
2023/02/25 04:05:15;;;;;;;69.40;41.78;;;8.60;99.90;;;;;;5032881;28;20052;-76
2023/02/25 04:07:40;;;;;;;76.13;41.75;;;8.60;99.90;;;;;;5025823;28;20543;-76
2023/02/25 04:10:08;;;;;;;74.13;41.95;;;8.60;99.90;;;;;;5033027;28;20025;-77
2023/02/25 04:12:34;;;;;;;71.32;42.72;;;8.50;99.90;;;;;;5032862;28;20036;-76
2023/02/25 04:15:00;;;;;;;75.57;43.35;;;8.40;99.90;;;;;;5033017;28;20025;-76
2023/02/25 04:17:25;;;;;;;77.32;42.15;;;8.40;99.90;;;;;;5032821;28;20113;-77
2023/02/25 04:19:54;;;;;;;82.90;42.97;;;8.40;99.90;;;;;;5032820;28;20029;-77
2023/02/25 04:22:23;;;;;;;79.10;43.63;;;8.40;99.90;;;;;;5007611;28;20056;-76
2023/02/25 04:24:51;;;;;;;81.10;46.83;;;8.40;99.90;;;;;;5032828;28;20033;-77
2023/02/25 04:27:17;;;;;;;90.88;49.03;;;8.40;99.90;;;;;;5032785;28;20030;-76
2023/02/25 04:29:43;;;;;;;97.95;49.78;;;8.40;99.90;;;;;;5014276;28;20025;-76
2023/02/25 04:32:10;;;;;;;91.90;48.90;;;8.50;99.90;;;;;;5011060;28;20028;-76
2023/02/25 04:34:36;;;;;;;83.53;47.22;;;8.50;99.90;;;;;;5014752;28;20029;-76
2023/02/25 04:37:03;;;;;;;94.03;51.10;;;8.50;99.90;;;;;;5032708;28;20036;-77
2023/02/25 04:39:32;;;;;;;91.68;48.70;;;8.50;99.90;;;;;;5015744;28;20432;-76
2023/02/25 04:41:59;;;;;;;92.70;48.03;;;8.60;99.90;;;;;;5023285;28;20033;-76
2023/02/25 04:44:25;;;;;;;86.63;47.55;;;8.50;99.90;;;;;;5032365;28;20032;-76
2023/02/25 04:46:50;;;;;;;91.60;50.78;;;8.50;99.90;;;;;;5032272;28;20464;-76
2023/02/25 04:49:21;;;;;;;89.60;48.17;;;8.50;99.90;;;;;;5032079;28;20030;-75
2023/02/25 04:51:48;;;;;;;87.57;47.22;;;8.40;99.90;;;;;;5032247;28;20090;-76
2023/02/25 04:54:14;;;;;;;93.30;48.80;;;8.30;99.90;;;;;;5032265;28;20071;-76
2023/02/25 04:56:40;;;;;;;85.28;46.05;;;8.30;99.90;;;;;;5032048;28;20021;-76
2023/02/25 04:59:06;;;;;;;80.55;46.22;;;8.30;99.90;;;;;;5032150;28;20045;-76
2023/02/25 05:01:32;;;;;;;85.10;47.88;;;8.30;99.90;;;;;;5029193;28;20512;-76
2023/02/25 05:03:59;;;;;;;82.38;45.45;;;8.30;99.90;;;;;;5027592;28;20100;-76
2023/02/25 05:06:29;;;;;;;78.93;44.55;;;8.40;99.90;;;;;;5022973;28;20026;-76
2023/02/25 05:08:57;;;;;;;81.20;44.67;;;8.40;99.90;;;;;;5032112;28;20032;-76
2023/02/25 05:11:25;;;;;;;80.70;44.53;;;8.40;99.90;;;;;;5031976;28;20477;-76
2023/02/25 05:13:51;;;;;;;79.35;44.88;;;8.40;99.90;;;;;;5031882;28;20183;-76
2023/02/25 05:16:18;;;;;;;79.30;43.88;;;8.40;99.90;;;;;;5023149;28;20036;-76
2023/02/25 05:18:45;;;;;;;82.18;46.10;;;8.40;99.90;;;;;;5010479;28;20493;-76
2023/02/25 05:21:14;;;;;;;77.95;44.22;;;8.40;99.90;;;;;;5028101;28;20048;-76
2023/02/25 05:23:40;;;;;;;84.45;46.42;;;8.40;99.90;;;;;;5022889;28;20030;-76
2023/02/25 05:26:07;;;;;;;87.85;46.65;;;8.40;99.90;;;;;;5031791;28;20042;-76
2023/02/25 05:28:33;;;;;;;79.82;45.05;;;8.30;99.90;;;;;;5031743;28;20037;-76
2023/02/25 05:30:58;;;;;;;76.63;43.78;;;8.30;99.90;;;;;;5027955;28;20062;-76
2023/02/25 05:33:25;;;;;;;75.93;42.50;;;8.20;99.90;;;;;;5021908;28;20122;-76
2023/02/25 05:35:51;;;;;;;70.80;41.22;;;8.30;99.90;;;;;;5031919;28;20037;-77
2023/02/25 05:38:17;;;;;;;76.03;42.75;;;8.20;99.90;;;;;;5031812;28;20049;-76
2023/02/25 05:40:42;;;;;;;76.40;44.70;;;8.10;99.90;;;;;;5031679;28;20036;-76
2023/02/25 05:43:08;;;;;;;91.65;46.80;;;8.10;99.90;;;;;;5031674;28;20040;-76
2023/02/25 05:45:34;;;;;;;87.70;47.83;;;8.10;99.90;;;;;;5013985;28;20492;-76
2023/02/25 05:48:00;;;;;;;83.80;45.80;;;8.10;99.90;;;;;;5031441;28;20057;-76
2023/02/25 05:50:27;;;;;;;84.22;47.53;;;8.10;99.90;;;;;;5031494;28;20022;-76
2023/02/25 05:52:53;;;;;;;88.00;48.33;;;8.10;99.90;;;;;;5006178;28;20197;-76
2023/02/25 05:55:18;;;;;;;74.55;42.95;;;8.10;99.90;;;;;;5031576;28;20017;-76
2023/02/25 05:57:44;;;;;;;74.25;44.00;;;8.10;99.90;;;;;;5031712;28;20032;-76
2023/02/25 06:00:13;;;;;;;77.68;44.92;;;8.10;99.90;;;;;;5027904;28;20086;-76
2023/02/25 06:02:40;;;;;;;72.90;41.03;;;8.00;99.90;;;;;;5024905;28;20017;-76
2023/02/25 06:05:06;;;;;;;79.65;46.13;;;7.90;99.90;;;;;;5031388;28;20515;-76
2023/02/25 06:07:32;;;;;;;80.93;44.92;;;7.80;99.90;;;;;;5031464;28;20099;-76
2023/02/25 06:10:00;;;;;;;83.10;46.08;;;7.80;99.90;;;;;;5031288;28;20485;-77
2023/02/25 06:12:31;;;;;;;74.55;43.35;;;7.80;99.90;;;;;;5031608;28;20071;-76
2023/02/25 06:14:56;;;;;;;82.57;47.95;;;7.80;99.90;;;;;;5016476;28;20022;-77
2023/02/25 06:17:25;;;;;;;92.38;51.85;;;7.70;99.90;;;;;;5017472;28;20128;-76
2023/02/25 06:19:51;;;;;;;91.95;50.53;;;7.70;99.90;;;;;;5030987;28;20033;-76
2023/02/25 06:22:21;;;;;;;98.40;52.53;;;7.80;99.90;;;;;;5035062;28;20094;-77
2023/02/25 06:24:46;;;;;;;94.90;52.35;;;7.90;99.90;;;;;;5035101;28;20523;-76
2023/02/25 06:27:13;;;;;;;99.55;53.78;;;7.90;99.90;;;;;;5034718;28;20065;-76
2023/02/25 06:29:40;;;;;;;106.53;55.80;;;7.90;99.90;;;;;;5025176;28;20040;-76
2023/02/25 06:32:10;;;;;;;100.50;55.38;;;8.00;99.90;;;;;;5030372;28;20022;-76
2023/02/25 06:34:36;;;;;;;104.07;53.85;;;8.10;99.90;;;;;;5012792;28;20030;-76
2023/02/25 06:37:02;;;;;;;99.13;54.05;;;8.20;99.90;;;;;;5014126;28;20022;-76
2023/02/25 06:39:28;;;;;;;96.63;53.38;;;8.20;99.90;;;;;;5034915;28;20033;-76
2023/02/25 06:41:54;;;;;;;102.32;55.85;;;8.20;99.90;;;;;;5017010;28;20025;-76
2023/02/25 06:44:20;;;;;;;98.40;54.25;;;8.20;99.90;;;;;;5034765;28;20052;-76
2023/02/25 06:46:48;;;;;;;99.82;54.67;;;8.20;99.90;;;;;;5032975;28;20108;-76
2023/02/25 06:49:14;;;;;;;95.68;53.10;;;8.20;99.90;;;;;;5034610;28;20026;-77
2023/02/25 06:51:39;;;;;;;99.20;52.45;;;8.10;99.90;;;;;;5026621;28;20028;-76
2023/02/25 06:54:05;;;;;;;99.72;53.08;;;8.10;99.90;;;;;;5016693;28;20067;-76
2023/02/25 06:56:31;;;;;;;103.78;55.42;;;8.10;99.90;;;;;;5013058;28;20076;-76
2023/02/25 06:58:58;;;;;;;104.45;56.35;;;8.10;99.90;;;;;;5030503;28;20068;-76
2023/02/25 07:01:24;;;;;;;103.28;56.58;;;8.20;99.90;;;;;;5028983;28;20052;-77
2023/02/25 07:03:51;;;;;;;107.30;55.30;;;8.30;99.90;;;;;;5032245;28;20033;-76
2023/02/25 07:06:17;;;;;;;99.05;54.47;;;8.30;99.90;;;;;;5016440;28;20525;-77
2023/02/25 07:08:44;;;;;;;104.35;54.22;;;8.40;99.90;;;;;;5045875;28;20025;-77
2023/02/25 07:11:20;;;;;;;96.75;54.75;;;8.40;99.90;;;;;;5016621;28;20029;-77
2023/02/25 07:13:47;;;;;;;107.55;58.60;;;8.40;99.90;;;;;;5024535;28;20500;-76
2023/02/25 07:16:14;;;;;;;107.55;58.88;;;8.40;99.90;;;;;;5033995;28;20025;-76
2023/02/25 07:18:43;;;;;;;104.95;57.53;;;8.50;99.90;;;;;;5033817;28;20026;-77
2023/02/25 07:21:14;;;;;;;103.95;55.45;;;8.60;99.90;;;;;;5016285;28;20022;-76
2023/02/25 07:23:41;;;;;;;109.88;58.58;;;8.60;99.90;;;;;;5027324;28;20083;-76
2023/02/25 07:26:09;;;;;;;108.35;59.20;;;8.60;99.90;;;;;;5033316;28;20026;-77
2023/02/25 07:28:35;;;;;;;109.15;60.40;;;8.60;99.90;;;;;;5033895;28;20175;-76
2023/02/25 07:31:10;;;;;;;106.82;58.88;;;8.70;99.90;;;;;;5031979;28;20028;-76
2023/02/25 07:33:35;;;;;;;106.15;59.50;;;8.70;99.90;;;;;;5029772;28;20029;-77
2023/02/25 07:36:01;;;;;;;107.63;59.35;;;8.70;99.90;;;;;;5016255;28;20056;-77
2023/02/25 07:38:27;;;;;;;107.38;60.25;;;8.80;99.90;;;;;;5033629;28;20026;-77
2023/02/25 07:40:52;;;;;;;113.07;61.35;;;8.80;99.90;;;;;;5024695;28;20507;-77
2023/02/25 07:43:22;;;;;;;109.40;62.20;;;8.90;99.90;;;;;;5033505;28;20037;-77
2023/02/25 07:45:50;;;;;;;118.55;64.78;;;8.90;99.90;;;;;;5033333;28;20030;-76
2023/02/25 07:48:16;;;;;;;115.88;64.95;;;9.00;99.90;;;;;;5008190;28;20092;-76
2023/02/25 07:50:43;;;;;;;112.15;64.72;;;9.00;99.90;;;;;;5033520;28;20037;-77
2023/02/25 07:53:09;;;;;;;110.30;62.10;;;9.00;99.90;;;;;;5033276;28;20021;-77
2023/02/25 07:55:34;;;;;;;112.13;61.20;;;9.10;99.90;;;;;;5033523;28;20075;-76
2023/02/25 07:58:00;;;;;;;109.65;56.85;;;9.10;99.90;;;;;;5015199;28;20029;-76
2023/02/25 08:00:26;;;;;;;112.57;59.83;;;9.20;99.90;;;;;;5029152;28;20029;-76
2023/02/25 08:02:52;;;;;;;108.63;60.67;;;9.20;99.90;;;;;;5033276;28;20028;-77
2023/02/25 08:05:20;;;;;;;112.88;61.92;;;9.20;99.90;;;;;;5015198;28;20033;-76
2023/02/25 08:07:46;;;;;;;102.25;56.78;;;9.30;99.90;;;;;;5012075;28;20037;-77
2023/02/25 08:10:12;;;;;;;101.03;56.60;;;9.30;99.90;;;;;;5033275;28;20033;-76
2023/02/25 08:12:37;;;;;;;100.43;57.22;;;9.30;99.90;;;;;;5033051;28;20021;-77
2023/02/25 08:15:03;;;;;;;99.43;54.03;;;9.40;99.90;;;;;;5032996;28;20167;-76
2023/02/25 08:17:33;;;;;;;100.15;53.72;;;9.40;99.90;;;;;;5032960;28;20108;-76
2023/02/25 08:19:58;;;;;;;101.03;53.45;;;9.50;99.90;;;;;;5011630;28;20072;-76
2023/02/25 08:22:24;;;;;;;102.45;54.45;;;9.60;99.90;;;;;;5032926;28;20060;-77
2023/02/25 08:24:50;;;;;;;88.82;49.63;;;9.60;99.90;;;;;;5014382;28;20187;-76
2023/02/25 08:27:16;;;;;;;87.97;49.40;;;9.80;99.90;;;;;;5003605;28;20037;-76
2023/02/25 08:29:41;;;;;;;81.65;47.25;;;9.80;99.90;;;;;;5010584;28;20437;-76
2023/02/25 08:32:07;;;;;;;85.20;45.20;;;9.90;99.90;;;;;;5021598;28;20025;-76
2023/02/25 08:34:33;;;;;;;73.72;43.88;;;9.90;99.90;;;;;;5027778;28;20386;-76
2023/02/25 08:36:59;;;;;;;80.50;43.75;;;10.00;99.90;;;;;;5024876;28;20037;-76
2023/02/25 08:39:25;;;;;;;70.72;41.60;;;10.00;99.90;;;;;;5034105;28;20096;-76
2023/02/25 08:41:51;;;;;;;78.20;41.92;;;10.10;99.90;;;;;;5033748;28;20030;-77
2023/02/25 08:44:18;;;;;;;74.43;42.20;;;10.10;99.90;;;;;;5032470;28;20025;-77
2023/02/25 08:46:44;;;;;;;72.80;39.75;;;10.10;99.90;;;;;;5017449;28;20022;-76
2023/02/25 08:49:10;;;;;;;78.55;39.10;;;10.20;99.90;;;;;;5033374;28;20094;-76
2023/02/25 08:51:39;;;;;;;58.90;32.25;;;10.30;99.90;;;;;;5033662;28;20022;-77
2023/02/25 08:54:11;;;;;;;39.33;20.05;;;10.40;99.90;;;;;;5033891;28;20025;-76
2023/02/25 08:56:43;;;;;;;41.40;20.80;;;10.70;99.90;;;;;;5033291;28;20037;-76
2023/02/25 08:59:12;;;;;;;37.83;21.02;;;10.80;99.90;;;;;;5033514;28;20045;-77
2023/02/25 09:01:43;;;;;;;30.30;18.58;;;10.80;99.90;;;;;;5028900;28;20033;-76
2023/02/25 09:04:14;;;;;;;36.13;18.52;;;10.90;99.90;;;;;;5007262;28;20478;-76
2023/02/25 09:06:40;;;;;;;38.37;19.20;;;11.00;99.90;;;;;;5013598;28;20037;-77
2023/02/25 09:09:06;;;;;;;41.80;20.42;;;11.10;99.90;;;;;;5010095;28;20640;-76
2023/02/25 09:11:32;;;;;;;38.28;18.65;;;11.20;99.90;;;;;;5033623;28;20384;-76
2023/02/25 09:13:57;;;;;;;41.15;20.73;;;11.10;99.90;;;;;;5015607;28;20029;-76
2023/02/25 09:16:23;;;;;;;39.13;19.92;;;11.10;99.90;;;;;;5015539;28;20370;-76
2023/02/25 09:18:50;;;;;;;40.60;21.60;;;11.20;99.90;;;;;;5033082;28;20535;-76
2023/02/25 09:21:19;;;;;;;43.67;20.65;;;11.30;99.90;;;;;;5032965;28;20022;-77
2023/02/25 09:23:45;;;;;;;46.33;22.80;;;11.40;99.90;;;;;;5033231;28;20034;-76
2023/02/25 09:26:12;;;;;;;44.65;21.30;;;11.40;99.90;;;;;;5033216;28;20096;-77
2023/02/25 09:28:38;;;;;;;43.33;19.13;;;11.50;99.90;;;;;;5015618;28;20030;-77
2023/02/25 09:31:04;;;;;;;31.63;17.75;;;11.50;99.90;;;;;;5018940;28;20029;-76
2023/02/25 09:33:34;;;;;;;35.75;17.65;;;11.50;99.90;;;;;;5014312;28;20025;-77
2023/02/25 09:36:07;;;;;;;34.53;18.52;;;11.50;99.90;;;;;;5006602;28;20018;-76
2023/02/25 09:38:33;;;;;;;38.90;19.33;;;11.60;99.90;;;;;;5015119;28;20041;-76
2023/02/25 09:40:59;;;;;;;35.83;18.80;;;11.70;99.90;;;;;;5033244;28;20021;-77
2023/02/25 09:43:29;;;;;;;35.88;19.50;;;11.60;99.90;;;;;;5032833;28;20491;-75
2023/02/25 09:46:06;;;;;;;34.75;18.70;;;11.60;99.90;;;;;;5032780;28;20029;-76
2023/02/25 09:48:36;;;;;;;36.33;18.23;;;11.60;99.90;;;;;;5015891;28;20022;-76
2023/02/25 09:51:21;;;;;;;31.13;17.17;;;11.60;99.90;;;;;;5037016;28;20040;-76
2023/02/25 09:54:16;;;;;;;28.75;16.30;;;11.70;99.90;;;;;;5017561;28;20014;-76
2023/02/25 09:56:41;;;;;;;28.40;14.85;;;11.70;99.90;;;;;;4988825;28;20030;-77
2023/02/25 09:59:14;;;;;;;33.90;15.10;;;11.70;99.90;;;;;;5017029;28;20057;-76
2023/02/25 10:01:55;;;;;;;27.52;14.55;;;11.80;99.90;;;;;;5019104;28;20473;-76
2023/02/25 10:04:59;;;;;;;35.72;16.58;;;11.90;99.90;;;;;;5018766;28;20393;-76
2023/02/25 10:07:32;;;;;;;37.78;15.57;;;11.90;99.90;;;;;;4975309;28;20027;-76
2023/02/25 10:10:00;;;;;;;24.60;14.70;;;11.90;99.90;;;;;;5023043;28;20362;-76
2023/02/25 10:13:11;;;;;;;33.42;15.50;;;11.90;99.90;;;;;;5035159;28;20033;-76
2023/02/25 10:15:49;;;;;;;35.00;17.10;;;11.90;99.90;;;;;;4974675;28;20038;-76
2023/02/25 10:18:32;;;;;;;36.53;16.90;;;11.90;99.90;;;;;;5014073;28;20037;-76
2023/02/25 10:21:01;;;;;;;36.35;15.98;;;12.00;99.90;;;;;;5016564;28;20022;-76
2023/02/25 10:23:44;;;;;;;35.30;17.73;;;12.00;99.90;;;;;;5018832;28;20033;-76
2023/02/25 10:26:21;;;;;;;34.58;18.02;;;12.10;99.90;;;;;;5035962;28;20556;-76
2023/02/25 10:28:52;;;;;;;31.67;16.90;;;12.20;99.90;;;;;;5035928;28;20029;-76
2023/02/25 10:31:20;;;;;;;39.30;17.33;;;12.20;99.90;;;;;;5033992;28;20129;-76
2023/02/25 10:33:49;;;;;;;33.80;16.30;;;12.20;99.90;;;;;;5034056;28;20487;-75
2023/02/25 10:36:16;;;;;;;32.10;17.45;;;12.30;99.90;;;;;;5035705;28;20025;-76
2023/02/25 10:38:45;;;;;;;41.63;18.80;;;12.40;99.90;;;;;;5024203;28;20029;-76
2023/02/25 10:41:11;;;;;;;36.85;16.98;;;12.50;99.90;;;;;;5034435;28;20488;-76
2023/02/25 10:43:37;;;;;;;35.03;17.88;;;12.60;99.90;;;;;;5035779;28;20101;-76
2023/02/25 10:46:11;;;;;;;34.67;17.88;;;12.60;99.90;;;;;;5017640;28;20120;-76
2023/02/25 10:48:38;;;;;;;38.35;19.48;;;12.60;99.90;;;;;;5035531;28;20037;-76
2023/02/25 10:51:14;;;;;;;44.85;21.70;;;12.60;99.90;;;;;;5034410;28;20025;-76
2023/02/25 10:53:56;;;;;;;45.30;18.98;;;12.70;99.90;;;;;;5032604;28;20033;-76
2023/02/25 10:56:24;;;;;;;41.42;19.20;;;12.80;99.90;;;;;;5024160;28;20100;-76
2023/02/25 10:59:03;;;;;;;41.15;21.02;;;12.80;99.90;;;;;;5035250;28;20099;-76
2023/02/25 11:01:41;;;;;;;44.80;20.20;;;12.80;99.90;;;;;;5032599;28;20026;-75
2023/02/25 11:04:12;;;;;;;43.97;19.50;;;13.00;99.90;;;;;;5035401;28;20049;-76
2023/02/25 11:06:40;;;;;;;45.78;18.52;;;13.00;99.90;;;;;;5017522;28;20437;-76
2023/02/25 11:09:18;;;;;;;33.17;17.60;;;13.00;99.90;;;;;;5035406;28;20053;-76
2023/02/25 11:12:18;;;;;;;36.80;17.88;;;13.00;99.90;;;;;;5032393;28;20493;-76
2023/02/25 11:14:43;;;;;;;34.03;16.88;;;13.00;99.90;;;;;;5035266;28;20026;-77
2023/02/25 11:17:11;;;;;;;41.30;17.63;;;13.00;99.90;;;;;;5034965;28;20117;-76
2023/02/25 11:19:39;;;;;;;31.33;16.10;;;13.10;99.90;;;;;;5033560;28;20441;-76
2023/02/25 11:22:18;;;;;;;42.72;15.65;;;13.20;99.90;;;;;;5034981;28;20028;-75
2023/02/25 11:25:01;;;;;;;35.67;16.08;;;13.20;99.90;;;;;;5034998;28;20100;-76
2023/02/25 11:27:26;;;;;;;;;;;13.30;99.90;;;;;;5035529;28;20105;-75
2023/02/25 11:29:54;;;;;;;39.20;16.48;;;13.30;99.90;;;;;;5034865;28;20011;-76
2023/02/25 11:32:21;;;;;;;32.00;17.13;;;13.30;99.90;;;;;;5026532;28;20029;-76
2023/02/25 11:34:52;;;;;;;40.58;16.60;;;13.30;99.90;;;;;;5024088;28;20030;-76
2023/02/25 11:37:23;;;;;;;41.20;16.55;;;13.30;99.90;;;;;;5015012;28;20486;-76
2023/02/25 11:39:56;;;;;;;36.50;17.08;;;13.30;99.90;;;;;;5020821;28;20120;-75
2023/02/25 11:42:23;;;;;;;;;;;13.30;99.90;;;;;;5034508;28;20109;-76
2023/02/25 11:44:48;;;;;;;36.20;18.30;;;13.30;99.90;;;;;;5034111;28;19909;-76
2023/02/25 11:47:17;;;;;;;36.08;16.90;;;13.30;99.90;;;;;;5016291;28;20029;-75
2023/02/25 11:49:51;;;;;;;44.08;18.27;;;13.40;99.90;;;;;;5033838;28;20112;-75
2023/02/25 11:52:45;;;;;;;35.22;17.92;;;13.40;99.90;;;;;;5030327;28;20084;-76
2023/02/25 11:55:41;;;;;;;43.30;19.77;;;13.30;99.90;;;;;;5032973;28;20025;-76
2023/02/25 11:58:52;;;;;;;36.05;18.27;;;13.40;99.90;;;;;;5023249;28;20080;-76
2023/02/25 12:01:41;;;;;;;37.47;17.58;;;13.50;99.90;;;;;;5016499;28;21033;-75
2023/02/25 12:04:20;;;;;;;36.42;16.50;;;13.50;99.90;;;;;;5020243;28;20093;-76
2023/02/25 12:07:20;;;;;;;35.25;16.60;;;13.60;99.90;;;;;;5030520;28;20025;-76
2023/02/25 12:10:17;;;;;;;36.15;15.57;;;13.60;99.90;;;;;;5025548;28;20032;-76
2023/02/25 12:13:03;;;;;;;37.83;14.77;;;13.60;99.90;;;;;;5021105;28;20373;-76
2023/02/25 12:15:34;;;;;;;38.40;14.65;;;13.60;99.90;;;;;;5005330;28;20071;-76
2023/02/25 12:18:12;;;;;;;29.65;13.73;;;13.60;99.90;;;;;;5006437;28;20026;-76
2023/02/25 12:21:02;;;;;;;31.05;12.82;;;13.70;99.90;;;;;;5023480;28;20035;-76
2023/02/25 12:24:02;;;;;;;36.47;12.98;;;13.70;99.90;;;;;;5017594;28;20033;-77
2023/02/25 12:26:51;;;;;;;30.52;12.32;;;13.80;99.90;;;;;;5031097;28;20063;-77
2023/02/25 12:29:45;;;;;;;27.55;11.20;;;13.90;99.90;;;;;;5031869;28;20060;-77
2023/02/25 12:32:28;;;;;;;29.45;11.38;;;14.00;99.90;;;;;;5000234;28;20836;-77
2023/02/25 12:35:19;;;;;;;26.83;11.43;;;14.10;99.90;;;;;;5043306;28;20022;-77
2023/02/25 12:38:06;;;;;;;28.90;10.27;;;14.30;99.90;;;;;;5018681;28;20109;-77
2023/02/25 12:41:00;;;;;;;29.30;9.77;;;14.50;99.90;;;;;;5015573;28;20024;-76
2023/02/25 12:43:36;;;;;;;26.85;8.60;;;14.60;99.90;;;;;;5019064;28;20034;-77
2023/02/25 12:46:13;;;;;;;31.45;9.40;;;14.70;99.90;;;;;;5015288;28;20416;-77
2023/02/25 12:48:45;;;;;;;22.42;8.80;;;14.80;99.90;;;;;;5005804;28;20041;-76
2023/02/25 12:51:23;;;;;;;25.00;10.30;;;14.90;99.90;;;;;;5025909;28;20116;-77
2023/02/25 12:54:07;;;;;;;24.42;9.48;;;15.00;99.90;;;;;;5027090;28;20021;-77